Terminal Aerodrome Forecast
Issued by NWS

Home | Current Version | Previous Version | Text Only | Print | Product List | Glossary Off
Versions: 1 2 3 4 5 6 7 8 9 10 11 12 13 14 15 16 17 18

931
FTUS43 KGRB 231128
TAFATW
TAF
KATW 231128Z 2312/2412 20008KT P6SM SCT250
     FM231500 21010G15KT P6SM SCT250
     FM231600 21012G18KT P6SM SCT040
     FM232300 19011G16KT P6SM SCT060
     FM240600 17008KT P6SM SCT050 BKN080
      TEMPO 2408/2412 3SM SHRA BKN035=

USA.gov is the U.S. government's official web portal to all federal, state and local government web resources and services.